Time;durP1;ratioP1;P1;durP2;ratioP2;P2;SDS_P1;SDS_P2;PMS_P1;PMS_P2;Temp;Humidity;BMP_temperature;BMP_pressure;BME280_temperature;BME280_humidity;BME280_pressure;Samples;Min_cycle;Max_cycle;Signal;HPM_P1;HPM_P2
2023/06/12 00:02:28;;;;;;;4.30;3.20;;;;;;;17.11;79.98;100003.47;5090418;27;20301;-58
2023/06/12 00:05:01;;;;;;;26.63;3.90;;;;;;;16.72;80.38;99963.94;5059297;28;21033;-58
2023/06/12 00:07:35;;;;;;;7.90;3.60;;;;;;;16.97;80.59;100012.06;5083744;27;20683;-60
2023/06/12 00:10:09;;;;;;;6.17;3.10;;;;;;;17.05;81.25;100003.78;5071330;28;20282;-59
2023/06/12 00:12:44;;;;;;;5.23;3.03;;;;;;;17.11;80.80;100003.47;5080441;27;20663;-59
2023/06/12 00:15:18;;;;;;;4.93;3.57;;;;;;;17.14;80.67;100003.31;5089223;27;20288;-60
2023/06/12 00:17:51;;;;;;;5.23;3.60;;;;;;;17.18;80.33;99978.50;5079616;27;20798;-58
2023/06/12 00:20:24;;;;;;;4.73;3.23;;;;;;;17.33;80.96;99991.88;5089363;27;20293;-60
2023/06/12 00:22:59;;;;;;;5.80;3.50;;;;;;;17.08;79.87;99940.25;5078790;27;20295;-60
2023/06/12 00:25:32;;;;;;;7.53;3.80;;;;;;;17.42;79.35;99996.69;5085056;27;20277;-59
2023/06/12 00:28:09;;;;;;;6.80;3.50;;;;;;;17.46;79.36;99995.63;5089524;27;20358;-58
2023/06/12 00:30:44;;;;;;;6.13;3.70;;;;;;;17.52;79.37;99997.94;5079570;27;20695;-58
2023/06/12 00:33:18;;;;;;;7.23;3.33;;;;;;;17.54;79.11;99995.25;5088814;27;20641;-58
2023/06/12 00:35:51;;;;;;;7.40;3.23;;;;;;;17.75;78.81;99988.06;5075679;27;20849;-58
2023/06/12 00:38:26;;;;;;;4.73;3.23;;;;;;;17.87;78.14;99987.44;5089919;27;20781;-59
2023/06/12 00:40:59;;;;;;;6.47;3.20;;;;;;;18.05;77.63;99975.94;5071588;28;20332;-59
2023/06/12 00:43:36;;;;;;;3.57;2.73;;;;;;;18.41;77.38;99982.88;5081642;27;20286;-58
2023/06/12 00:46:13;;;;;;;9.70;3.72;;;;;;;18.58;76.85;99989.06;5088178;28;20281;-58
2023/06/12 00:48:47;;;;;;;5.43;3.57;;;;;;;18.75;76.26;99986.34;5075051;28;20335;-58
2023/06/12 00:51:27;;;;;;;6.33;3.40;;;;;;;18.79;74.64;99981.75;5088297;27;20300;-57
2023/06/12 00:54:14;;;;;;;7.60;3.67;;;;;;;18.82;74.40;99979.81;5078661;27;20284;-59
2023/06/12 00:56:53;;;;;;;16.55;4.30;;;;;;;18.84;74.02;99967.31;5082310;27;20289;-60
2023/06/12 00:59:28;;;;;;;12.00;4.33;;;;;;;18.95;73.90;99975.53;5091593;27;20051;-57
2023/06/12 01:02:04;;;;;;;13.83;3.70;;;;;;;18.98;73.81;99976.31;5081901;27;20350;-59
2023/06/12 01:04:38;;;;;;;9.13;3.47;;;;;;;19.07;74.12;99959.88;5082113;27;20810;-59
2023/06/12 01:07:15;;;;;;;6.23;4.03;;;;;;;19.30;74.07;99962.09;5093266;27;20370;-58
2023/06/12 01:09:57;;;;;;;19.20;3.83;;;;;;;19.52;73.33;99961.72;5082821;27;20346;-58
2023/06/12 01:12:33;;;;;;;5.23;3.40;;;;;;;19.52;71.76;99961.72;5092648;27;20292;-58
2023/06/12 01:15:09;;;;;;;7.13;2.60;;;;;;;19.56;70.90;99957.09;5079157;27;20315;-59
2023/06/12 01:17:42;;;;;;;5.77;2.47;;;;;;;19.61;71.03;99955.88;5071968;27;20330;-58
2023/06/12 01:20:18;;;;;;;6.00;2.87;;;;;;;19.68;70.57;99951.09;5092878;27;20288;-59
2023/06/12 01:22:55;;;;;;;9.70;3.90;;;;;;;19.83;71.40;99955.47;5083317;27;20894;-58
2023/06/12 01:25:47;;;;;;;4.77;3.07;;;;;;;19.89;71.28;99953.41;5092432;27;20304;-59
2023/06/12 01:28:37;;;;;;;12.60;4.50;;;;;;;19.89;70.75;99956.06;5088100;27;20357;-58
2023/06/12 01:31:16;;;;;;;6.00;2.77;;;;;;;19.82;70.99;99968.84;5065866;27;20285;-58
2023/06/12 01:33:53;;;;;;;6.55;2.63;;;;;;;19.75;70.06;99968.34;5073864;27;20331;-59
2023/06/12 01:36:27;;;;;;;4.20;2.80;;;;;;;19.71;70.12;99972.13;5093110;27;20047;-59
2023/06/12 01:39:04;;;;;;;7.23;2.70;;;;;;;19.31;71.01;99932.00;5081326;27;20794;-59
2023/06/12 01:41:36;;;;;;;6.20;2.87;;;;;;;19.55;70.93;99963.34;5081334;27;20294;-60
2023/06/12 01:44:10;;;;;;;37.67;5.20;;;;;;;19.60;71.11;99969.22;5092528;27;20288;-59
2023/06/12 01:46:41;;;;;;;5.33;2.87;;;;;;;19.69;70.73;99963.41;5082195;27;20293;-60
2023/06/12 01:49:14;;;;;;;4.10;3.17;;;;;;;19.51;69.31;99959.16;5090647;27;20357;-59
2023/06/12 01:51:44;;;;;;;6.33;3.00;;;;;;;19.71;70.57;99963.31;5081851;27;21125;-60
2023/06/12 01:54:15;;;;;;;5.97;2.37;;;;;;;19.69;67.95;99962.53;5093002;27;20293;-60
2023/06/12 01:56:47;;;;;;;4.23;3.03;;;;;;;19.44;68.90;99915.41;5081947;27;20285;-58
2023/06/12 01:59:18;;;;;;;6.43;3.20;;;;;;;20.03;71.29;99950.78;5088887;27;20320;-59
2023/06/12 02:01:48;;;;;;;8.77;3.50;;;;;;;20.39;71.76;99947.69;5081361;27;21056;-60
2023/06/12 02:04:20;;;;;;;3.30;2.70;;;;;;;20.65;70.14;99916.88;5092025;27;20782;-59
2023/06/12 02:06:51;;;;;;;4.53;2.90;;;;;;;21.16;70.40;99928.69;5081684;27;20713;-59
2023/06/12 02:09:22;;;;;;;5.57;3.07;;;;;;;21.33;67.19;99917.78;5092826;27;20392;-59
2023/06/12 02:11:52;;;;;;;6.30;3.20;;;;;;;21.70;66.88;99925.97;5082064;27;20347;-57
2023/06/12 02:14:24;;;;;;;3.60;2.77;;;;;;;21.91;67.13;99943.13;5091975;27;20396;-59
2023/06/12 02:16:55;;;;;;;7.80;4.00;;;;;;;21.87;66.60;99938.13;5081666;27;20665;-57
2023/06/12 02:19:28;;;;;;;7.93;5.90;;;;;;;21.76;65.67;99928.22;5088908;27;20293;-58
2023/06/12 02:22:02;;;;;;;18.77;3.80;;;;;;;21.60;64.80;99927.56;5080837;27;20280;-59
2023/06/12 02:24:33;;;;;;;6.30;2.77;;;;;;;21.16;65.86;99856.94;5082013;27;20281;-59
2023/06/12 02:27:04;;;;;;;4.90;3.30;;;;;;;21.47;65.10;99915.09;5088773;27;20047;-58
2023/06/12 02:29:35;;;;;;;9.37;4.60;;;;;;;21.67;66.98;99919.06;5077799;27;20047;-59
2023/06/12 02:32:06;;;;;;;3.37;2.60;;;;;;;21.41;63.50;99910.19;5091822;27;20409;-59
2023/06/12 02:34:38;;;;;;;16.37;10.87;;;;;;;21.22;65.20;99912.34;5080717;27;20156;-59
2023/06/12 02:37:10;;;;;;;6.50;3.37;;;;;;;21.23;66.38;99919.34;5090022;27;20348;-58
2023/06/12 02:39:41;;;;;;;6.20;2.53;;;;;;;21.54;67.28;99912.84;5081367;27;20054;-59
2023/06/12 02:42:11;;;;;;;5.27;3.03;;;;;;;21.64;65.81;99899.78;5088259;27;20050;-57
2023/06/12 02:44:42;;;;;;;5.13;3.00;;;;;;;21.77;64.80;99895.34;5080789;27;20051;-59
2023/06/12 02:47:13;;;;;;;6.83;3.97;;;;;;;21.92;66.17;99881.00;5091310;27;20062;-58
2023/06/12 02:49:45;;;;;;;3.93;2.97;;;;;;;22.05;65.51;99885.47;5080478;27;20319;-58
2023/06/12 02:52:16;;;;;;;6.17;3.63;;;;;;;22.15;66.37;99894.50;5091471;27;20077;-59
2023/06/12 02:54:46;;;;;;;5.10;2.83;;;;;;;22.28;66.36;99890.03;5081117;27;20075;-58
2023/06/12 02:57:17;;;;;;;5.33;2.97;;;;;;;22.45;66.22;99888.00;5092074;27;20043;-59
2023/06/12 02:59:47;;;;;;;5.07;3.20;;;;;;;22.49;64.85;99886.78;5080493;27;20159;-58
2023/06/12 03:02:18;;;;;;;5.73;3.10;;;;;;;22.31;64.08;99889.81;5091010;27;20115;-58
2023/06/12 03:04:50;;;;;;;5.33;3.50;;;;;;;22.22;64.81;99873.66;5076720;27;20812;-59
2023/06/12 03:07:21;;;;;;;5.10;3.33;;;;;;;22.38;65.02;99875.09;5091477;27;20044;-58
2023/06/12 03:09:52;;;;;;;6.97;3.63;;;;;;;22.19;62.74;99874.72;5080689;27;20064;-58
2023/06/12 03:12:23;;;;;;;3.90;2.63;;;;;;;22.35;65.40;99870.00;5090986;27;20048;-58
2023/06/12 03:14:54;;;;;;;4.37;2.93;;;;;;;22.32;64.74;99872.91;5077067;27;20047;-58
2023/06/12 03:17:24;;;;;;;3.23;2.63;;;;;;;22.31;63.66;99868.50;5089943;27;20051;-58
2023/06/12 03:19:56;;;;;;;6.27;3.07;;;;;;;22.36;65.09;99871.69;5077464;27;20044;-57
2023/06/12 03:22:27;;;;;;;7.83;3.40;;;;;;;22.42;65.50;99848.28;5088032;27;20051;-59
2023/06/12 03:24:58;;;;;;;5.73;3.47;;;;;;;22.68;66.24;99852.53;5079948;27;20058;-58
2023/06/12 03:27:31;;;;;;;4.67;3.37;;;;;;;23.06;65.30;99875.53;5091028;27;20055;-58
2023/06/12 03:30:01;;;;;;;6.23;3.30;;;;;;;22.88;63.87;99823.59;5066868;27;20047;-58
2023/06/12 03:32:32;;;;;;;6.10;3.20;;;;;;;23.09;64.53;99864.66;5063876;28;20146;-57
2023/06/12 03:35:05;;;;;;;13.07;4.10;;;;;;;22.97;63.81;99862.88;5086740;27;20055;-56
2023/06/12 03:37:36;;;;;;;7.27;3.50;;;;;;;22.78;63.73;99861.56;5077605;27;20861;-58
2023/06/12 03:40:07;;;;;;;7.30;3.67;;;;;;;22.59;65.26;99862.06;5089379;27;21294;-58
2023/06/12 03:42:38;;;;;;;6.63;3.30;;;;;;;22.76;65.88;99858.16;5080787;27;20048;-58
2023/06/12 03:45:11;;;;;;;7.33;3.53;;;;;;;22.74;65.05;99833.47;5082089;27;20074;-59
2023/06/12 03:47:42;;;;;;;6.90;3.60;;;;;;;23.06;65.42;99854.22;5080790;27;20054;-58
2023/06/12 03:50:14;;;;;;;7.53;3.47;;;;;;;22.89;65.29;99809.28;5090913;27;20974;-57
2023/06/12 03:52:45;;;;;;;9.53;3.63;;;;;;;23.27;64.81;99856.25;5080587;27;20071;-58
2023/06/12 03:55:15;;;;;;;6.83;3.70;;;;;;;23.09;63.80;99854.00;5082053;27;20116;-59
2023/06/12 03:57:46;;;;;;;7.77;3.33;;;;;;;23.11;64.64;99854.72;5080505;27;20452;-58
2023/06/12 04:00:19;;;;;;;6.63;3.27;;;;;;;23.06;63.79;99843.53;5084813;27;20070;-58
2023/06/12 04:02:50;;;;;;;8.10;3.47;;;;;;;23.15;63.83;99840.19;5078718;27;20054;-58
2023/06/12 04:05:26;;;;;;;8.43;3.40;;;;;;;23.31;64.20;99831.03;5089511;27;20048;-58
2023/06/12 04:07:56;;;;;;;5.77;2.80;;;;;;;23.44;63.44;99816.66;5078032;27;20051;-58
2023/06/12 04:10:27;;;;;;;7.67;3.17;;;;;;;23.69;63.38;99826.28;5088564;27;20474;-58
2023/06/12 04:12:58;;;;;;;8.53;4.40;;;;;;;23.95;62.96;99828.75;5077919;27;20051;-58
2023/06/12 04:15:30;;;;;;;10.67;4.60;;;;;;;23.93;61.73;99814.66;5090100;27;20051;-58
2023/06/12 04:18:01;;;;;;;6.57;3.80;;;;;;;23.80;61.26;99832.63;5079258;27;20107;-58
2023/06/12 04:20:33;;;;;;;5.33;3.00;;;;;;;23.73;60.68;99829.56;5081999;27;20043;-58
2023/06/12 04:23:05;;;;;;;6.13;3.10;;;;;;;23.79;62.48;99830.91;5086525;27;20139;-58
2023/06/12 04:25:36;;;;;;;11.00;3.43;;;;;;;24.02;62.44;99832.63;5079417;27;20061;-56
2023/06/12 04:28:08;;;;;;;9.10;3.13;;;;;;;23.98;61.99;99820.47;5089690;27;20090;-58
2023/06/12 04:30:38;;;;;;;7.80;3.20;;;;;;;23.77;61.80;99827.53;5078870;27;20065;-57
2023/06/12 04:33:10;;;;;;;6.03;3.50;;;;;;;23.61;61.99;99823.38;5089004;27;20057;-58
2023/06/12 04:35:45;;;;;;;4.90;3.23;;;;;;;23.46;62.42;99819.19;5079039;27;20536;-58
2023/06/12 04:38:16;;;;;;;5.80;4.07;;;;;;;23.48;62.52;99811.94;5089220;27;20425;-59
2023/06/12 04:40:47;;;;;;;7.17;3.67;;;;;;;23.65;62.36;99818.63;5078805;27;20051;-58
2023/06/12 04:43:19;;;;;;;3.50;2.93;;;;;;;23.68;61.65;99813.88;5086814;27;20473;-58
2023/06/12 04:45:51;;;;;;;9.37;4.80;;;;;;;23.68;61.78;99807.72;5080429;27;20055;-57
2023/06/12 04:48:26;;;;;;;8.43;3.57;;;;;;;23.62;63.02;99825.06;5089774;27;20047;-58
2023/06/12 04:50:58;;;;;;;8.67;3.73;;;;;;;23.37;62.02;99819.91;5075944;28;20052;-59
2023/06/12 04:53:30;;;;;;;9.10;3.87;;;;;;;23.53;64.39;99825.75;5089500;27;20058;-57
2023/06/12 04:56:05;;;;;;;7.47;3.30;;;;;;;23.72;63.63;99819.00;5078357;27;20057;-59
2023/06/12 04:58:35;;;;;;;10.73;6.23;;;;;;;24.00;63.65;99823.03;5077479;27;20050;-57
2023/06/12 05:01:06;;;;;;;10.57;3.30;;;;;;;24.18;62.36;99820.72;5071335;28;20553;-58
2023/06/12 05:03:38;;;;;;;8.00;4.00;;;;;;;24.36;62.55;99827.22;5079467;27;20362;-57
2023/06/12 05:06:10;;;;;;;11.23;4.03;;;;;;;24.49;62.30;99819.97;5089088;27;20190;-57
2023/06/12 05:08:41;;;;;;;7.30;3.60;;;;;;;24.59;62.24;99821.88;5078354;27;20397;-57
2023/06/12 05:11:12;;;;;;;7.83;4.20;;;;;;;24.75;61.68;99811.63;5088226;27;20051;-58
2023/06/12 05:13:42;;;;;;;7.00;3.83;;;;;;;24.80;61.89;99812.09;5078362;27;20065;-58
2023/06/12 05:16:13;;;;;;;5.60;3.60;;;;;;;24.69;60.99;99814.84;5088765;27;20134;-57
2023/06/12 05:18:44;;;;;;;5.57;3.17;;;;;;;24.63;60.88;99809.97;5078761;28;20043;-57
2023/06/12 05:21:18;;;;;;;10.00;4.43;;;;;;;24.74;61.46;99801.94;5085868;27;20915;-56
2023/06/12 05:23:50;;;;;;;8.00;4.27;;;;;;;24.92;62.22;99800.41;5078460;27;20327;-57
2023/06/12 05:26:20;;;;;;;8.70;4.77;;;;;;;25.04;60.72;99803.03;5088871;28;20062;-57
2023/06/12 05:28:51;;;;;;;10.80;3.80;;;;;;;24.98;60.77;99794.53;5075335;27;20477;-57
2023/06/12 05:31:22;;;;;;;9.13;3.93;;;;;;;24.89;60.90;99789.97;5088597;27;20051;-57
2023/06/12 05:33:53;;;;;;;7.77;3.87;;;;;;;24.91;59.38;99790.69;5078515;27;20083;-58
2023/06/12 05:36:26;;;;;;;10.70;3.77;;;;;;;25.05;60.57;99794.03;5089113;27;20055;-57
2023/06/12 05:38:57;;;;;;;13.77;4.13;;;;;;;25.11;59.75;99793.50;5078350;27;20051;-57
2023/06/12 05:41:30;;;;;;;16.33;4.27;;;;;;;24.97;60.84;99794.66;5089745;27;20057;-57
2023/06/12 05:44:00;;;;;;;7.27;4.00;;;;;;;24.79;61.49;99794.38;5081448;27;20078;-56
2023/06/12 05:46:31;;;;;;;13.73;4.50;;;;;;;24.79;61.57;99789.03;5085988;27;20568;-57
2023/06/12 05:49:02;;;;;;;9.40;3.83;;;;;;;24.94;61.59;99794.94;5091643;27;20055;-58
2023/06/12 05:51:35;;;;;;;10.13;4.33;;;;;;;25.14;61.57;99793.25;5083140;27;20047;-58
2023/06/12 05:54:05;;;;;;;11.50;3.83;;;;;;;25.20;60.48;99791.91;5092093;27;20039;-58
2023/06/12 05:56:36;;;;;;;6.23;3.87;;;;;;;25.18;60.45;99786.69;5078341;27;20040;-57
2023/06/12 05:59:06;;;;;;;21.43;5.17;;;;;;;25.22;60.98;99785.44;5091897;27;20055;-58
2023/06/12 06:01:37;;;;;;;13.13;4.90;;;;;;;25.27;61.03;99777.88;5080976;27;20055;-56
2023/06/12 06:04:10;;;;;;;12.27;4.97;;;;;;;25.31;61.51;99773.97;5091787;27;20047;-57
2023/06/12 06:06:43;;;;;;;9.37;4.07;;;;;;;25.29;61.38;99770.59;5082174;27;20085;-58
2023/06/12 06:09:14;;;;;;;7.00;4.50;;;;;;;25.12;60.74;99779.16;5091910;27;20051;-57
2023/06/12 06:11:44;;;;;;;9.50;4.47;;;;;;;24.67;62.07;99720.59;5080941;27;20051;-58
2023/06/12 06:14:15;;;;;;;11.67;4.80;;;;;;;24.91;61.73;99772.00;5088269;27;20280;-57
2023/06/12 06:16:46;;;;;;;12.47;5.07;;;;;;;24.85;62.15;99780.50;5081378;27;20047;-57
2023/06/12 06:19:24;;;;;;;15.27;5.25;;;;;;;24.20;62.81;99679.97;5091940;27;20139;-57
2023/06/12 06:21:56;;;;;;;11.47;4.40;;;;;;;24.72;62.52;99771.81;5080798;27;20050;-57
2023/06/12 06:24:26;;;;;;;10.97;5.00;;;;;;;24.73;62.55;99778.84;5092088;27;20050;-57
2023/06/12 06:26:57;;;;;;;10.90;5.07;;;;;;;24.84;62.86;99775.31;5080548;27;20039;-57
2023/06/12 06:29:28;;;;;;;10.20;4.33;;;;;;;25.01;62.71;99777.41;5091559;27;20184;-58
2023/06/12 06:31:58;;;;;;;13.47;4.50;;;;;;;25.16;62.10;99776.13;5079725;27;20047;-57
2023/06/12 06:34:30;;;;;;;8.70;4.63;;;;;;;25.21;61.94;99782.91;5090734;27;20139;-59
2023/06/12 06:37:03;;;;;;;9.30;5.00;;;;;;;25.22;61.71;99766.75;5064489;27;20063;-58
2023/06/12 06:39:33;;;;;;;10.70;4.10;;;;;;;25.34;61.28;99789.75;5082764;27;20051;-58
2023/06/12 06:42:05;;;;;;;10.97;4.50;;;;;;;24.91;60.58;99772.00;5092290;27;20062;-57
2023/06/12 06:44:36;;;;;;;10.13;5.20;;;;;;;25.14;61.42;99777.22;5074227;27;20533;-57
2023/06/12 06:47:06;;;;;;;7.10;4.23;;;;;;;25.21;61.36;99789.13;5085900;27;20064;-58
2023/06/12 06:49:37;;;;;;;7.40;4.50;;;;;;;25.26;60.56;99792.25;5077802;27;20147;-56
2023/06/12 06:52:09;;;;;;;7.00;4.40;;;;;;;25.28;60.29;99790.25;5090128;27;20304;-58
2023/06/12 06:54:40;;;;;;;11.10;4.27;;;;;;;25.19;60.92;99793.75;5081716;27;20069;-57
2023/06/12 06:57:11;;;;;;;8.57;4.23;;;;;;;25.05;60.68;99799.38;5088009;27;20397;-56
2023/06/12 06:59:42;;;;;;;7.37;4.47;;;;;;;24.77;60.54;99791.00;5079914;27;20070;-58
2023/06/12 07:02:12;;;;;;;13.33;4.00;;;;;;;24.58;61.14;99796.16;5090825;27;20043;-57
2023/06/12 07:04:44;;;;;;;7.93;3.83;;;;;;;24.45;61.65;99797.16;5080221;27;20051;-58
2023/06/12 07:07:16;;;;;;;8.73;4.30;;;;;;;24.42;62.94;99802.72;5090650;27;20058;-57
2023/06/12 07:09:47;;;;;;;16.80;4.80;;;;;;;23.84;62.12;99751.38;5079681;27;20063;-57
2023/06/12 07:12:18;;;;;;;7.17;3.90;;;;;;;23.68;62.72;99787.22;5090501;27;20059;-58
2023/06/12 07:14:48;;;;;;;9.50;4.37;;;;;;;23.66;63.60;99794.50;5079990;27;20065;-56
2023/06/12 07:17:19;;;;;;;8.40;3.90;;;;;;;23.72;63.56;99787.84;5090076;27;20075;-58
2023/06/12 07:19:49;;;;;;;11.30;4.77;;;;;;;23.74;62.54;99785.06;5076348;27;20047;-57
2023/06/12 07:22:22;;;;;;;10.73;4.30;;;;;;;23.66;62.66;99783.84;5090537;27;20051;-57
2023/06/12 07:24:52;;;;;;;16.47;3.80;;;;;;;23.74;62.43;99779.72;5080744;27;20410;-57
2023/06/12 07:27:23;;;;;;;10.63;4.70;;;;;;;23.83;62.22;99779.00;5090994;27;20051;-58
2023/06/12 07:29:55;;;;;;;14.27;4.03;;;;;;;23.91;61.56;99781.91;5077088;27;20051;-58
2023/06/12 07:32:25;;;;;;;8.37;3.90;;;;;;;24.08;61.54;99778.75;5090130;27;20096;-56
2023/06/12 07:34:56;;;;;;;7.90;4.13;;;;;;;23.97;61.64;99768.09;5079017;27;20552;-56
2023/06/12 07:37:29;;;;;;;14.10;4.90;;;;;;;23.66;61.25;99770.50;5087427;27;20104;-58
2023/06/12 07:40:00;;;;;;;9.60;5.13;;;;;;;23.24;62.47;99767.53;5079577;27;20532;-57
2023/06/12 07:42:31;;;;;;;7.90;4.23;;;;;;;22.82;63.71;99740.50;5090285;27;20112;-58
2023/06/12 07:45:01;;;;;;;11.20;4.00;;;;;;;22.81;64.00;99776.13;5079030;27;20047;-58
2023/06/12 07:47:32;;;;;;;7.13;4.37;;;;;;;22.68;63.81;99772.66;5083081;27;20067;-59
2023/06/12 07:50:03;;;;;;;14.00;5.10;;;;;;;22.57;65.57;99788.59;5089804;27;20070;-57
2023/06/12 07:52:36;;;;;;;12.10;4.87;;;;;;;22.70;65.70;99778.72;5079261;27;20101;-57
2023/06/12 07:55:10;;;;;;;10.50;4.10;;;;;;;22.71;65.56;99764.41;5088266;27;20047;-57
2023/06/12 07:57:41;;;;;;;7.17;3.73;;;;;;;22.77;65.33;99779.97;5079847;27;20047;-58
2023/06/12 08:00:13;;;;;;;6.57;4.03;;;;;;;22.77;65.66;99779.13;5086863;27;20051;-57
2023/06/12 08:02:43;;;;;;;6.67;4.17;;;;;;;22.45;65.30;99739.75;5078824;27;20103;-57
2023/06/12 08:05:14;;;;;;;11.20;4.33;;;;;;;22.47;65.11;99798.22;5085880;27;20743;-57
2023/06/12 08:07:46;;;;;;;17.60;5.10;;;;;;;22.22;65.99;99781.38;5078570;27;20144;-58
2023/06/12 08:10:17;;;;;;;13.87;4.67;;;;;;;22.07;66.19;99785.97;5088351;27;20667;-58
2023/06/12 08:12:47;;;;;;;16.03;4.47;;;;;;;21.87;66.93;99790.03;5078487;27;20477;-58
2023/06/12 08:15:19;;;;;;;7.03;4.67;;;;;;;21.78;67.66;99795.16;5088130;27;20059;-56
2023/06/12 08:17:51;;;;;;;8.33;4.37;;;;;;;21.59;67.74;99800.91;5079212;27;20055;-56
2023/06/12 08:20:21;;;;;;;16.87;4.67;;;;;;;21.52;68.19;99806.66;5089475;27;20057;-58
2023/06/12 08:22:57;;;;;;;7.23;4.80;;;;;;;21.37;68.96;99802.34;5075091;27;20170;-57
2023/06/12 08:25:28;;;;;;;7.23;4.10;;;;;;;21.27;69.86;99799.47;5087757;27;20055;-58
2023/06/12 08:27:58;;;;;;;13.47;4.57;;;;;;;21.27;69.67;99817.22;5076911;27;20743;-57
2023/06/12 08:30:29;;;;;;;8.47;4.80;;;;;;;21.18;69.90;99820.50;5087561;27;20312;-57
2023/06/12 08:33:00;;;;;;;13.57;4.23;;;;;;;21.10;70.58;99827.19;5067546;27;20043;-57
2023/06/12 08:35:31;;;;;;;9.40;4.13;;;;;;;20.98;71.10;99832.47;5084136;27;20043;-57
2023/06/12 08:38:03;;;;;;;9.87;4.77;;;;;;;20.65;71.17;99805.38;5084501;28;20274;-58
2023/06/12 08:40:34;;;;;;;6.13;3.93;;;;;;;20.59;70.67;99827.03;5079504;27;20051;-59
2023/06/12 08:43:05;;;;;;;10.60;4.43;;;;;;;20.28;71.78;99835.22;5083877;28;20301;-58
2023/06/12 08:45:39;;;;;;;11.63;4.37;;;;;;;20.00;72.70;99821.03;5079685;27;20347;-59
2023/06/12 08:48:10;;;;;;;15.70;4.67;;;;;;;19.93;72.21;99827.66;5089866;27;20309;-59
2023/06/12 08:50:41;;;;;;;8.73;2.60;;;;;;;19.46;71.65;99828.72;5075424;27;20379;-59
2023/06/12 08:53:14;;;;;;;7.93;2.67;;;;;;;19.08;72.05;99850.41;5083818;27;20746;-59
2023/06/12 08:55:45;;;;;;;6.97;2.00;;;;;;;18.83;72.59;99857.09;5078581;27;20539;-58
2023/06/12 08:58:16;;;;;;;3.83;2.17;;;;;;;18.53;73.42;99865.78;5086161;27;20331;-57
2023/06/12 09:00:47;;;;;;;7.70;2.23;;;;;;;18.25;73.38;99855.03;5077983;27;20756;-59
2023/06/12 09:03:17;;;;;;;5.73;1.80;;;;;;;18.03;73.55;99856.19;5087252;28;20300;-59
2023/06/12 09:05:49;;;;;;;6.10;2.40;;;;;;;17.63;74.42;99831.84;5075769;27;20363;-58
2023/06/12 09:08:23;;;;;;;7.60;2.50;;;;;;;17.60;75.35;99853.16;5088842;27;20300;-56
2023/06/12 09:14:22;;;;;;;8.23;3.23;;;;;;;17.04;76.20;99809.34;5086057;27;20296;-57
2023/06/12 09:16:55;;;;;;;3.27;2.30;;;;;;;17.13;76.77;99843.22;5081279;27;20282;-62
2023/06/12 09:19:27;;;;;;;7.27;2.17;;;;;;;17.00;77.40;99844.78;5090332;27;20942;-59
2023/06/12 09:21:58;;;;;;;5.87;2.43;;;;;;;16.89;78.20;99844.44;5082288;27;20284;-59
2023/06/12 09:24:32;;;;;;;5.27;2.37;;;;;;;16.54;78.39;99812.66;5093603;27;20365;-60
2023/06/12 09:27:03;;;;;;;7.10;2.20;;;;;;;16.75;79.01;99861.75;5081842;27;20627;-57
2023/06/12 09:29:36;;;;;;;4.73;2.03;;;;;;;16.67;79.06;99871.81;5082379;27;20377;-58
2023/06/12 09:32:10;;;;;;;7.07;2.83;;;;;;;16.41;79.78;99830.00;5092403;27;20696;-60
2023/06/12 09:34:48;;;;;;;6.53;2.60;;;;;;;16.58;80.02;99867.00;5081791;27;20309;-59
2023/06/12 09:37:20;;;;;;;7.10;2.57;;;;;;;16.43;80.33;99867.72;5092315;27;20292;-59
2023/06/12 09:40:08;;;;;;;7.53;2.20;;;;;;;16.37;80.95;99869.72;5082829;27;20325;-59
2023/06/12 09:42:40;;;;;;;8.40;2.50;;;;;;;16.27;81.02;99867.56;5082380;27;20318;-58
2023/06/12 09:45:17;;;;;;;8.77;2.90;;;;;;;16.11;81.68;99854.25;5089444;27;20393;-59
2023/06/12 09:47:49;;;;;;;13.97;2.97;;;;;;;16.09;82.26;99850.81;5082493;27;20281;-59
2023/06/12 09:50:22;;;;;;;5.87;2.93;;;;;;;16.11;82.26;99859.50;5092545;27;20297;-59
2023/06/12 09:52:59;;;;;;;7.33;2.50;;;;;;;16.06;82.15;99869.41;5082072;27;20801;-60
2023/06/12 09:55:34;;;;;;;8.90;2.70;;;;;;;15.92;83.04;99868.22;5092187;27;20269;-57
2023/06/12 09:58:08;;;;;;;10.90;3.03;;;;;;;15.89;83.37;99872.78;5081643;27;20380;-58
2023/06/12 10:00:40;;;;;;;7.47;3.20;;;;;;;15.60;83.84;99829.25;5082205;27;20341;-59
2023/06/12 10:03:14;;;;;;;5.47;2.40;;;;;;;15.76;84.55;99861.09;5091614;27;20813;-58
2023/06/12 10:05:51;;;;;;;4.77;2.57;;;;;;;15.49;84.37;99827.94;5082223;27;20310;-59
2023/06/12 10:08:22;;;;;;;5.50;2.73;;;;;;;15.69;84.98;99876.28;5092000;27;20277;-57
2023/06/12 10:10:57;;;;;;;18.90;3.43;;;;;;;15.68;85.44;99874.56;5078698;27;20282;-58
2023/06/12 10:13:30;;;;;;;9.47;2.90;;;;;;;15.71;85.89;99863.94;5092492;27;20301;-57
2023/06/12 10:16:03;;;;;;;11.43;2.50;;;;;;;15.72;85.69;99861.25;5045464;28;20609;-60
2023/06/12 10:18:36;;;;;;;5.23;2.87;;;;;;;15.43;85.65;99822.97;5062118;28;20369;-59
2023/06/12 10:21:09;;;;;;;14.23;3.10;;;;;;;15.74;85.88;99879.59;5071634;28;20311;-58
2023/06/12 10:23:41;;;;;;;5.87;2.53;;;;;;;15.63;86.19;99871.28;5053927;28;20757;-58
2023/06/12 10:26:15;;;;;;;7.53;2.93;;;;;;;15.66;86.09;99881.69;5066174;28;20978;-58
2023/06/12 10:28:46;;;;;;;8.97;3.03;;;;;;;15.56;85.66;99870.69;5058597;28;20764;-59
2023/06/12 10:31:20;;;;;;;5.50;2.60;;;;;;;15.61;85.64;99878.38;5069351;28;20289;-59
2023/06/12 10:34:04;;;;;;;14.37;3.77;;;;;;;15.60;85.91;99876.66;5061312;28;21195;-60
2023/06/12 10:36:42;;;;;;;6.27;2.67;;;;;;;15.55;86.11;99863.72;5061525;28;20286;-59
2023/06/12 10:39:19;;;;;;;3.83;2.80;;;;;;;15.65;85.88;99879.94;5072189;28;20281;-57
2023/06/12 10:41:58;;;;;;;4.40;2.50;;;;;;;15.60;86.34;99866.13;5052957;28;21230;-60
2023/06/12 10:44:41;;;;;;;4.85;3.00;;;;;;;15.75;86.70;99886.59;5071072;28;20357;-59
2023/06/12 10:47:21;;;;;;;6.63;3.50;;;;;;;15.77;85.92;99889.97;5047387;28;20181;-60
2023/06/12 10:50:00;;;;;;;6.40;2.97;;;;;;;15.75;86.66;99886.59;5061607;28;20339;-58
2023/06/12 10:52:32;;;;;;;6.93;2.90;;;;;;;15.82;87.92;99888.00;5066043;28;20048;-59
2023/06/12 10:55:22;;;;;;;7.43;3.33;;;;;;;15.74;88.61;99874.31;5069312;28;20331;-60
2023/06/12 10:57:56;;;;;;;8.53;3.17;;;;;;;15.84;89.33;99891.44;5061873;28;20326;-58
2023/06/12 11:00:32;;;;;;;12.87;3.77;;;;;;;15.80;89.27;99884.59;5071561;28;20390;-59
2023/06/12 11:03:07;;;;;;;6.37;2.93;;;;;;;15.72;89.16;99891.97;5050767;28;20286;-58
2023/06/12 11:05:39;;;;;;;6.20;2.87;;;;;;;15.54;89.63;99860.19;5057361;28;21048;-59
2023/06/12 11:08:12;;;;;;;11.13;3.23;;;;;;;15.65;89.76;99895.75;5071095;28;20310;-58
2023/06/12 11:10:43;;;;;;;16.63;3.70;;;;;;;15.67;90.05;99891.28;5057071;28;20384;-59
2023/06/12 11:13:17;;;;;;;15.20;3.27;;;;;;;15.63;90.43;99897.63;5069468;28;20278;-58
2023/06/12 11:15:51;;;;;;;8.67;3.27;;;;;;;15.52;90.46;99890.16;5051644;28;20763;-60
2023/06/12 11:18:23;;;;;;;11.27;3.30;;;;;;;15.29;90.62;99864.81;5066836;28;20326;-58
2023/06/12 11:20:55;;;;;;;12.37;3.43;;;;;;;15.58;90.92;99916.25;5061303;28;20325;-60
2023/06/12 11:23:27;;;;;;;11.33;3.63;;;;;;;15.54;91.41;99910.25;5063764;28;20298;-58
2023/06/12 11:26:00;;;;;;;7.67;3.17;;;;;;;15.53;91.62;99913.81;5059478;28;20811;-58
2023/06/12 11:28:33;;;;;;;6.17;2.97;;;;;;;15.01;91.46;99818.59;5069902;28;20289;-60
2023/06/12 11:31:07;;;;;;;8.63;3.17;;;;;;;15.64;92.17;99905.44;5058822;28;20277;-59
2023/06/12 11:33:43;;;;;;;12.23;3.23;;;;;;;15.68;92.93;99906.19;5059883;28;20308;-60
2023/06/12 11:36:14;;;;;;;6.57;3.10;;;;;;;15.68;93.18;99901.75;5070003;28;20308;-58
2023/06/12 11:38:46;;;;;;;13.00;3.37;;;;;;;15.67;93.11;99893.91;5058252;28;21344;-60
2023/06/12 11:41:20;;;;;;;9.80;3.50;;;;;;;15.63;92.84;99887.09;5066604;28;20277;-58
2023/06/12 11:43:54;;;;;;;8.17;3.33;;;;;;;15.57;93.44;99892.59;5060302;28;20285;-60
2023/06/12 11:46:27;;;;;;;5.03;3.00;;;;;;;15.39;93.92;99874.03;5069532;28;20282;-57
2023/06/12 11:49:01;;;;;;;9.40;3.00;;;;;;;15.50;94.18;99887.59;5058836;28;20292;-61
2023/06/12 11:51:37;;;;;;;5.97;3.07;;;;;;;15.29;94.36;99864.81;5060173;28;21089;-59
2023/06/12 11:54:11;;;;;;;10.40;3.47;;;;;;;15.39;94.89;99887.19;5066987;28;20371;-60
2023/06/12 11:56:43;;;;;;;5.43;2.97;;;;;;;15.37;95.13;99880.28;5059614;28;20282;-59
2023/06/12 11:59:19;;;;;;;5.97;3.03;;;;;;;15.32;95.36;99888.38;5066705;28;20292;-60
2023/06/12 12:01:51;;;;;;;5.03;3.23;;;;;;;15.37;96.12;99886.41;5059053;28;20285;-60